createdAt,value
2018-04-17T00:00:36.344Z,23.76
2018-04-17T00:01:46.030Z,23.84
2018-04-17T00:02:55.450Z,23.7
2018-04-17T00:04:04.340Z,23.76
2018-04-17T00:05:13.503Z,23.75
2018-04-17T00:06:22.914Z,23.76
2018-04-17T00:07:32.325Z,23.73
2018-04-17T00:08:41.740Z,23.72
2018-04-17T00:09:50.904Z,23.84
2018-04-17T00:11:00.315Z,23.72
2018-04-17T00:12:09.476Z,23.8
2018-04-17T00:13:19.150Z,23.85
2018-04-17T00:14:29.114Z,23.83
2018-04-17T00:15:38.790Z,23.78
2018-04-17T00:16:48.202Z,23.72
2018-04-17T00:17:57.870Z,23.79
2018-04-17T00:19:07.042Z,23.75
2018-04-17T00:20:16.460Z,23.8
2018-04-17T00:21:25.866Z,23.75
2018-04-17T00:22:35.456Z,23.75
2018-04-17T00:23:44.624Z,23.75
2018-04-17T00:24:54.043Z,23.73
2018-04-17T00:26:04.008Z,23.7
2018-04-17T00:27:13.942Z,23.7
2018-04-17T00:28:23.690Z,23.75
2018-04-17T00:29:33.896Z,23.73
2018-04-17T00:30:43.056Z,23.7
2018-04-17T00:31:52.469Z,23.73
2018-04-17T00:33:01.883Z,23.69
2018-04-17T00:34:11.047Z,23.8
2018-04-17T00:35:20.216Z,23.79
2018-04-17T00:36:29.117Z,23.72
2018-04-17T00:37:38.796Z,23.79
2018-04-17T00:38:48.216Z,23.7
2018-04-17T00:39:57.372Z,23.78
2018-04-17T00:41:07.026Z,23.79
2018-04-17T00:42:16.713Z,23.87
2018-04-17T00:43:26.384Z,23.8
2018-04-17T00:44:35.798Z,23.78
2018-04-17T00:45:44.464Z,23.76
2018-04-17T00:46:54.154Z,23.78
2018-04-17T00:48:03.321Z,23.73
2018-04-17T00:49:13.000Z,23.78
2018-04-17T00:50:22.149Z,23.78
2018-04-17T00:51:31.303Z,23.83
2018-04-17T00:52:40.460Z,23.79
2018-04-17T00:53:50.401Z,23.75
2018-04-17T00:54:59.552Z,23.78
2018-04-17T00:56:08.188Z,23.73
2018-04-17T00:57:18.126Z,23.75
2018-04-17T00:58:27.285Z,23.79
2018-04-17T00:59:36.218Z,23.76
2018-04-17T01:00:45.378Z,23.7
2018-04-17T01:01:55.372Z,23.78
2018-04-17T01:03:04.535Z,23.75
2018-04-17T01:04:14.205Z,23.78
2018-04-17T01:05:23.607Z,23.75
2018-04-17T01:06:33.016Z,23.83
2018-04-17T01:07:42.697Z,23.72
2018-04-17T01:08:52.110Z,23.76
2018-04-17T01:10:01.269Z,23.75
2018-04-17T01:11:10.683Z,23.75
2018-04-17T01:12:20.367Z,23.84
2018-04-17T01:13:30.050Z,23.79
2018-04-17T01:14:39.465Z,23.8
2018-04-17T01:15:49.390Z,23.83
2018-04-17T01:16:58.293Z,23.72
2018-04-17T01:18:07.968Z,23.8
2018-04-17T01:19:17.628Z,23.87
2018-04-17T01:20:26.784Z,23.7
2018-04-17T01:21:35.947Z,23.87
2018-04-17T01:22:45.367Z,23.72
2018-04-17T01:23:54.791Z,23.87
2018-04-17T01:25:03.961Z,23.75
2018-04-17T01:26:13.130Z,23.78
2018-04-17T01:27:22.532Z,23.75
2018-04-17T01:28:31.975Z,23.8
2018-04-17T01:29:41.183Z,23.8
2018-04-17T01:30:50.336Z,23.75
2018-04-17T01:31:59.238Z,23.76
2018-04-17T01:33:08.928Z,23.7
2018-04-17T01:34:18.107Z,23.84
2018-04-17T01:35:27.775Z,23.84
2018-04-17T01:36:36.930Z,23.83
2018-04-17T01:37:46.084Z,23.79
2018-04-17T01:38:55.762Z,23.7
2018-04-17T01:40:05.190Z,23.72
2018-04-17T01:41:14.376Z,23.7
2018-04-17T01:42:24.042Z,23.66
2018-04-17T01:43:33.456Z,23.69
2018-04-17T01:44:42.604Z,23.79
2018-04-17T01:45:52.274Z,23.78
2018-04-17T01:47:01.686Z,23.72
2018-04-17T01:48:11.128Z,23.75
2018-04-17T01:49:20.541Z,23.72
2018-04-17T01:50:29.695Z,23.76
2018-04-17T01:51:39.122Z,23.72
2018-04-17T01:52:48.820Z,23.73
2018-04-17T01:53:58.503Z,23.8
2018-04-17T01:55:07.663Z,23.69
2018-04-17T01:56:17.438Z,23.87
2018-04-17T01:57:26.594Z,23.73
2018-04-17T01:58:36.180Z,23.75
2018-04-17T01:59:45.856Z,23.72
2018-04-17T02:00:55.545Z,23.8
2018-04-17T02:02:04.963Z,23.66
2018-04-17T02:03:14.646Z,23.68
2018-04-17T02:04:24.315Z,23.66
2018-04-17T02:05:33.474Z,23.7
2018-04-17T02:06:42.923Z,23.79
2018-04-17T02:07:52.087Z,23.83
2018-04-17T02:09:01.266Z,23.75
2018-04-17T02:10:10.950Z,23.7
2018-04-17T02:11:20.412Z,23.65
2018-04-17T02:12:29.850Z,23.72
2018-04-17T02:13:39.004Z,23.69
2018-04-17T02:14:48.422Z,23.72
2018-04-17T02:15:57.615Z,23.65
2018-04-17T02:17:07.274Z,23.65
2018-04-17T02:18:16.427Z,23.66
2018-04-17T02:19:25.644Z,23.75
2018-04-17T02:20:35.132Z,23.68
2018-04-17T02:21:44.549Z,23.69
2018-04-17T02:22:53.699Z,23.78
2018-04-17T02:24:02.643Z,23.66
2018-04-17T02:25:12.065Z,23.66
2018-04-17T02:26:21.480Z,23.69
2018-04-17T02:27:31.174Z,23.78
2018-04-17T02:28:40.864Z,23.66
2018-04-17T02:29:50.536Z,23.68
2018-04-17T02:30:59.183Z,23.66
2018-04-17T02:32:08.600Z,23.7
2018-04-17T02:33:18.310Z,23.69
2018-04-17T02:34:27.747Z,23.79
2018-04-17T02:35:37.177Z,23.78
2018-04-17T02:36:46.606Z,23.68
2018-04-17T02:37:56.069Z,23.76
2018-04-17T02:39:05.484Z,23.7
2018-04-17T02:40:14.907Z,23.78
2018-04-17T02:41:24.600Z,23.75
2018-04-17T02:42:34.273Z,23.75
2018-04-17T02:43:43.704Z,23.68
2018-04-17T02:44:53.386Z,23.75
2018-04-17T02:46:02.293Z,23.68
2018-04-17T02:47:11.968Z,23.69
2018-04-17T02:48:21.385Z,23.8
2018-04-17T02:49:31.065Z,23.68
2018-04-17T02:50:40.755Z,23.7
2018-04-17T02:51:50.700Z,23.69
2018-04-17T02:53:00.664Z,23.7
2018-04-17T02:54:10.169Z,23.69
2018-04-17T02:55:19.597Z,23.73
2018-04-17T02:56:29.073Z,23.68
2018-04-17T02:57:38.841Z,23.72
2018-04-17T02:58:48.524Z,23.63
2018-04-17T02:59:57.971Z,23.72
2018-04-17T03:01:07.397Z,23.69
2018-04-17T03:02:16.803Z,23.63
2018-04-17T03:03:26.763Z,23.69
2018-04-17T03:04:36.698Z,23.72
2018-04-17T03:05:46.636Z,23.75
2018-04-17T03:06:56.040Z,23.65
2018-04-17T03:08:05.487Z,23.79
2018-04-17T03:09:14.912Z,23.76
2018-04-17T03:10:23.816Z,23.68
2018-04-17T03:11:33.492Z,23.73
2018-04-17T03:12:42.413Z,23.79
2018-04-17T03:13:51.850Z,23.76
2018-04-17T03:15:01.784Z,23.76
2018-04-17T03:16:10.689Z,23.79
2018-04-17T03:17:20.104Z,23.73
2018-04-17T03:18:28.995Z,23.76
2018-04-17T03:19:38.151Z,23.7
2018-04-17T03:20:47.567Z,23.65
2018-04-17T03:21:57.490Z,23.7
2018-04-17T03:23:07.174Z,23.7
2018-04-17T03:24:16.589Z,23.73
2018-04-17T03:25:26.259Z,23.79
2018-04-17T03:26:35.672Z,23.76
2018-04-17T03:27:45.375Z,23.78
2018-04-17T03:28:54.533Z,23.73
2018-04-17T03:30:03.944Z,23.75
2018-04-17T03:31:13.370Z,23.76
2018-04-17T03:32:22.279Z,23.73
2018-04-17T03:33:31.957Z,23.69
2018-04-17T03:34:41.117Z,23.76
2018-04-17T03:35:50.528Z,23.79
2018-04-17T03:36:59.434Z,23.79
2018-04-17T03:38:09.119Z,23.68
2018-04-17T03:39:18.589Z,23.68
2018-04-17T03:40:28.292Z,23.73
2018-04-17T03:41:37.732Z,23.7
2018-04-17T03:42:46.885Z,23.75
2018-04-17T03:43:56.555Z,23.63
2018-04-17T03:45:05.456Z,23.7
2018-04-17T03:46:14.878Z,23.69
2018-04-17T03:47:23.793Z,23.68
2018-04-17T03:48:33.218Z,23.72
2018-04-17T03:49:42.924Z,23.63
2018-04-17T03:50:52.351Z,23.75
2018-04-17T03:52:01.258Z,23.7
2018-04-17T03:53:10.708Z,23.76
2018-04-17T03:54:19.862Z,23.7
2018-04-17T03:55:29.285Z,23.75
2018-04-17T03:56:38.948Z,23.63
2018-04-17T03:57:48.091Z,23.72
2018-04-17T03:58:57.253Z,23.7
2018-04-17T04:00:06.416Z,23.66
2018-04-17T04:01:16.091Z,23.69
2018-04-17T04:02:25.541Z,23.75
2018-04-17T04:03:35.225Z,23.66
2018-04-17T04:04:44.391Z,23.63
2018-04-17T04:05:54.333Z,23.63
2018-04-17T04:07:03.483Z,23.69
2018-04-17T04:08:12.926Z,23.66
2018-04-17T04:09:22.335Z,23.72
2018-04-17T04:10:31.530Z,23.68
2018-04-17T04:11:41.231Z,23.72
2018-04-17T04:12:50.642Z,23.63
2018-04-17T04:13:59.795Z,23.69
2018-04-17T04:15:09.984Z,23.61
2018-04-17T04:16:19.966Z,23.63
2018-04-17T04:17:29.125Z,23.69
2018-04-17T04:18:39.052Z,23.69
2018-04-17T04:19:48.208Z,23.61
2018-04-17T04:20:57.357Z,23.68
2018-04-17T04:22:06.264Z,23.6
2018-04-17T04:23:15.164Z,23.6
2018-04-17T04:24:24.309Z,23.66
2018-04-17T04:25:34.006Z,23.69
2018-04-17T04:26:43.850Z,23.63
2018-04-17T04:27:53.269Z,23.72
2018-04-17T04:29:02.972Z,23.66
2018-04-17T04:30:12.118Z,23.7
2018-04-17T04:31:21.517Z,23.69
2018-04-17T04:32:30.966Z,23.63
2018-04-17T04:33:39.861Z,23.6
2018-04-17T04:34:49.366Z,23.68
2018-04-17T04:35:59.158Z,23.69
2018-04-17T04:37:08.821Z,23.66
2018-04-17T04:38:18.744Z,23.66
2018-04-17T04:39:28.185Z,23.68
2018-04-17T04:40:37.604Z,23.68
2018-04-17T04:41:47.540Z,23.66
2018-04-17T04:42:57.221Z,23.63
2018-04-17T04:44:06.636Z,23.63
2018-04-17T04:45:16.050Z,23.66
2018-04-17T04:46:25.456Z,23.69
2018-04-17T04:47:35.449Z,23.63
2018-04-17T04:48:45.129Z,23.72
2018-04-17T04:49:54.043Z,23.63
2018-04-17T04:51:03.705Z,23.65
2018-04-17T04:52:13.209Z,23.66
2018-04-17T04:53:23.048Z,23.68
2018-04-17T04:54:31.944Z,23.61
2018-04-17T04:55:41.360Z,23.68
2018-04-17T04:56:50.535Z,23.69
2018-04-17T04:57:59.963Z,23.68
2018-04-17T04:59:09.668Z,23.68
2018-04-17T05:00:19.335Z,23.65
2018-04-17T05:01:28.485Z,23.63
2018-04-17T05:02:37.914Z,23.65
2018-04-17T05:03:46.825Z,23.68
2018-04-17T05:04:56.626Z,23.68
2018-04-17T05:06:06.058Z,23.63
2018-04-17T05:07:15.489Z,23.65
2018-04-17T05:08:24.650Z,23.63
2018-04-17T05:09:33.808Z,23.69
2018-04-17T05:10:42.978Z,23.68
2018-04-17T05:11:52.433Z,23.69
2018-04-17T05:13:02.259Z,23.65
2018-04-17T05:14:11.689Z,23.63
2018-04-17T05:15:20.869Z,23.63
2018-04-17T05:16:30.320Z,23.68
2018-04-17T05:17:39.986Z,23.63
2018-04-17T05:18:49.662Z,23.68
2018-04-17T05:19:59.070Z,23.66
2018-04-17T05:21:07.980Z,23.66
2018-04-17T05:22:17.976Z,23.61
2018-04-17T05:23:27.401Z,23.65
2018-04-17T05:24:36.577Z,23.63
2018-04-17T05:25:46.260Z,23.61
2018-04-17T05:26:55.939Z,23.61
2018-04-17T05:28:05.094Z,23.63
2018-04-17T05:29:14.499Z,23.65
2018-04-17T05:30:23.666Z,23.65
2018-04-17T05:31:32.855Z,23.63
2018-04-17T05:32:42.524Z,23.66
2018-04-17T05:33:51.955Z,23.66
2018-04-17T05:35:00.862Z,23.54
2018-04-17T05:36:10.084Z,23.68
2018-04-17T05:37:19.770Z,23.68
2018-04-17T05:38:28.687Z,23.65
2018-04-17T05:39:38.368Z,23.65
2018-04-17T05:40:48.052Z,23.68
2018-04-17T05:41:57.739Z,23.69
2018-04-17T05:43:07.424Z,23.63
2018-04-17T05:44:16.860Z,23.69
2018-04-17T05:45:26.537Z,23.63
2018-04-17T05:46:35.707Z,23.65
2018-04-17T05:47:45.122Z,23.79
2018-04-17T05:48:54.558Z,23.69
2018-04-17T05:50:04.259Z,23.61
2018-04-17T05:51:13.426Z,23.63
2018-04-17T05:52:22.576Z,23.6
2018-04-17T05:53:32.252Z,23.68
2018-04-17T05:54:41.460Z,23.65
2018-04-17T05:55:51.278Z,23.6
2018-04-17T05:57:00.626Z,23.66
2018-04-17T05:58:09.804Z,23.65
2018-04-17T05:59:19.219Z,23.7
2018-04-17T06:00:28.925Z,23.63
2018-04-17T06:01:38.090Z,23.6
2018-04-17T06:02:46.978Z,23.6
2018-04-17T06:03:56.656Z,23.66
2018-04-17T06:05:05.825Z,23.69
2018-04-17T06:06:15.591Z,23.65
2018-04-17T06:07:24.770Z,23.63
2018-04-17T06:08:34.709Z,23.66
2018-04-17T06:09:43.861Z,23.69
2018-04-17T06:10:53.053Z,23.66
2018-04-17T06:12:02.216Z,23.68
2018-04-17T06:13:11.123Z,23.61
2018-04-17T06:14:21.076Z,23.66
2018-04-17T06:15:30.572Z,23.65
2018-04-17T06:16:40.260Z,23.68
2018-04-17T06:17:49.950Z,23.61
2018-04-17T06:18:59.901Z,23.68
2018-04-17T06:20:09.587Z,23.7
2018-04-17T06:21:19.260Z,23.69
2018-04-17T06:22:28.677Z,23.68
2018-04-17T06:23:38.639Z,23.68
2018-04-17T06:24:47.805Z,23.75
2018-04-17T06:25:57.493Z,23.66
2018-04-17T06:27:07.459Z,23.65
2018-04-17T06:28:16.896Z,23.61
2018-04-17T06:29:26.320Z,23.66
2018-04-17T06:30:35.748Z,23.65
2018-04-17T06:31:45.156Z,23.65
2018-04-17T06:32:54.307Z,23.66
2018-04-17T06:34:03.992Z,23.7
2018-04-17T06:35:12.903Z,23.65
2018-04-17T06:36:22.322Z,23.66
2018-04-17T06:37:31.483Z,23.65
2018-04-17T06:38:40.887Z,23.68
2018-04-17T06:39:50.559Z,23.69
2018-04-17T06:40:59.452Z,23.68
2018-04-17T06:42:08.953Z,23.69
2018-04-17T06:43:18.881Z,23.63
2018-04-17T06:44:28.297Z,23.65
2018-04-17T06:45:37.448Z,23.65
2018-04-17T06:46:46.874Z,23.73
2018-04-17T06:47:56.033Z,23.63
2018-04-17T06:49:05.461Z,23.61
2018-04-17T06:50:14.882Z,23.61
2018-04-17T06:51:24.302Z,23.75
2018-04-17T06:52:33.275Z,23.63
2018-04-17T06:53:42.559Z,23.63
2018-04-17T06:54:52.491Z,23.7
2018-04-17T06:56:02.179Z,23.63
2018-04-17T06:57:11.344Z,23.65
2018-04-17T06:58:21.283Z,23.66
2018-04-17T06:59:30.464Z,23.68
2018-04-17T07:00:39.890Z,23.63
2018-04-17T07:01:49.312Z,23.7
2018-04-17T07:02:58.739Z,23.69
2018-04-17T07:04:07.928Z,23.7
2018-04-17T07:05:17.752Z,23.69
2018-04-17T07:06:27.230Z,23.68
2018-04-17T07:07:36.649Z,23.7
2018-04-17T07:08:46.062Z,23.79
2018-04-17T07:09:54.960Z,23.75
2018-04-17T07:11:04.652Z,23.73
2018-04-17T07:12:14.344Z,23.66
2018-04-17T07:13:24.030Z,23.63
2018-04-17T07:14:33.446Z,23.65
2018-04-17T07:15:42.603Z,23.76
2018-04-17T07:16:52.307Z,23.7
2018-04-17T07:18:02.039Z,23.7
2018-04-17T07:19:11.810Z,23.65
2018-04-17T07:20:21.717Z,23.79
2018-04-17T07:21:31.399Z,23.75
2018-04-17T07:22:40.574Z,23.7
2018-04-17T07:23:50.436Z,23.76
2018-04-17T07:24:59.874Z,23.69
2018-04-17T07:26:09.574Z,23.72
2018-04-17T07:27:18.467Z,23.72
2018-04-17T07:28:28.157Z,23.73
2018-04-17T07:29:37.573Z,23.75
2018-04-17T07:30:46.475Z,23.73
2018-04-17T07:31:55.925Z,23.69
2018-04-17T07:33:05.610Z,23.75
2018-04-17T07:34:14.245Z,23.73
2018-04-17T07:35:23.664Z,23.72
2018-04-17T07:36:33.597Z,23.65
2018-04-17T07:37:57.947Z,23.83
2018-04-17T07:39:07.360Z,23.73
2018-04-17T07:40:17.019Z,23.73
2018-04-17T07:41:26.849Z,23.7
2018-04-17T07:42:36.046Z,23.76
2018-04-17T07:43:45.454Z,23.72
2018-04-17T07:44:55.129Z,23.68
2018-04-17T07:46:04.025Z,23.73
2018-04-17T07:47:13.179Z,23.78
2018-04-17T07:48:22.864Z,23.69
2018-04-17T07:49:32.546Z,23.7
2018-04-17T07:50:42.222Z,23.73
2018-04-17T07:51:51.896Z,23.76
2018-04-17T07:53:01.573Z,23.73
2018-04-17T07:54:11.005Z,23.72
2018-04-17T07:55:20.424Z,23.8
2018-04-17T07:56:30.366Z,23.65
2018-04-17T07:57:39.521Z,23.7
2018-04-17T07:58:48.676Z,23.68
2018-04-17T07:59:58.166Z,23.69
2018-04-17T08:01:07.070Z,23.65
2018-04-17T08:02:16.484Z,23.8
2018-04-17T08:03:26.161Z,23.75
2018-04-17T08:04:35.930Z,23.72
2018-04-17T08:05:45.404Z,23.8
2018-04-17T08:06:54.833Z,23.8
2018-04-17T08:08:04.267Z,23.76
2018-04-17T08:09:13.984Z,23.68
2018-04-17T08:10:23.940Z,23.73
2018-04-17T08:11:33.870Z,23.7
2018-04-17T08:12:43.797Z,23.79
2018-04-17T08:13:53.048Z,23.72
2018-04-17T08:15:02.203Z,23.75
2018-04-17T08:16:11.871Z,23.83
2018-04-17T08:17:21.283Z,23.75
2018-04-17T08:18:30.718Z,23.79
2018-04-17T08:19:40.410Z,23.75
2018-04-17T08:20:49.565Z,23.87
2018-04-17T08:21:58.720Z,23.75
2018-04-17T08:23:08.411Z,23.76
2018-04-17T08:24:17.850Z,23.87
2018-04-17T08:25:27.294Z,23.79
2018-04-17T08:26:36.462Z,23.78
2018-04-17T08:27:46.400Z,23.78
2018-04-17T08:28:56.123Z,23.72
2018-04-17T08:30:05.531Z,23.78
2018-04-17T08:31:14.948Z,23.84
2018-04-17T08:32:24.889Z,23.8
2018-04-17T08:33:34.307Z,23.79
2018-04-17T08:34:43.968Z,23.75
2018-04-17T08:35:53.639Z,23.78
2018-04-17T08:37:02.886Z,23.73
2018-04-17T08:38:11.796Z,23.79
2018-04-17T08:39:21.220Z,23.79
2018-04-17T08:40:30.673Z,23.85
2018-04-17T08:41:39.845Z,23.73
2018-04-17T08:42:49.941Z,23.75
2018-04-17T08:43:59.926Z,23.79
2018-04-17T08:45:09.336Z,23.79
2018-04-17T08:46:18.783Z,23.75
2018-04-17T08:47:27.969Z,23.8
2018-04-17T08:48:37.432Z,23.78
2018-04-17T08:49:46.859Z,23.78
2018-04-17T08:50:56.031Z,23.78
2018-04-17T08:52:05.718Z,23.73
2018-04-17T08:53:15.148Z,23.83
2018-04-17T08:54:24.058Z,23.72
2018-04-17T08:55:33.288Z,23.79
2018-04-17T08:56:42.738Z,23.72
2018-04-17T08:57:52.178Z,23.83
2018-04-17T08:59:01.612Z,23.78
2018-04-17T09:00:11.059Z,23.78
2018-04-17T09:01:19.969Z,23.68
2018-04-17T09:02:29.646Z,23.79
2018-04-17T09:03:38.642Z,23.76
2018-04-17T09:04:47.823Z,23.8
2018-04-17T09:05:57.315Z,23.79
2018-04-17T09:07:06.720Z,23.79
2018-04-17T09:08:16.403Z,23.75
2018-04-17T09:09:25.565Z,23.7
2018-04-17T09:10:34.513Z,23.76
2018-04-17T09:11:43.999Z,23.72
2018-04-17T09:12:53.750Z,23.75
2018-04-17T09:14:03.421Z,23.75
2018-04-17T09:15:12.870Z,23.76
2018-04-17T09:16:22.013Z,23.7
2018-04-17T09:17:31.177Z,23.75
2018-04-17T09:18:40.583Z,23.78
2018-04-17T09:19:50.284Z,23.85
2018-04-17T09:20:59.448Z,23.78
2018-04-17T09:22:08.868Z,23.75
2018-04-17T09:23:17.783Z,23.72
2018-04-17T09:24:26.955Z,23.73
2018-04-17T09:25:36.108Z,23.83
2018-04-17T09:26:45.840Z,23.73
2018-04-17T09:27:55.540Z,23.72
2018-04-17T09:29:04.959Z,23.75
2018-04-17T09:30:14.637Z,23.73
2018-04-17T09:31:24.085Z,23.78
2018-04-17T09:32:33.028Z,23.76
2018-04-17T09:33:42.440Z,23.7
2018-04-17T09:34:51.600Z,23.85
2018-04-17T09:36:01.445Z,23.75
2018-04-17T09:37:11.155Z,23.72
2018-04-17T09:38:20.324Z,23.83
2018-04-17T09:39:29.797Z,23.73
2018-04-17T09:40:39.232Z,23.73
2018-04-17T09:41:49.172Z,23.87
2018-04-17T09:42:58.600Z,23.78
2018-04-17T09:44:07.496Z,23.84
2018-04-17T09:45:16.929Z,23.72
2018-04-17T09:46:26.336Z,23.8
2018-04-17T09:47:35.233Z,23.75
2018-04-17T09:48:45.172Z,23.72
2018-04-17T09:49:54.794Z,23.73
2018-04-17T09:51:04.212Z,23.78
2018-04-17T09:52:13.893Z,23.87
2018-04-17T09:53:23.056Z,23.73
2018-04-17T09:54:32.968Z,23.83
2018-04-17T09:55:42.139Z,23.75
2018-04-17T09:56:51.558Z,23.85
2018-04-17T09:58:01.085Z,23.78
2018-04-17T09:59:10.787Z,23.8
2018-04-17T10:00:19.961Z,23.79
2018-04-17T10:01:29.399Z,23.8
2018-04-17T10:02:39.061Z,23.76
2018-04-17T10:03:48.495Z,23.83
2018-04-17T10:04:57.651Z,23.73
2018-04-17T10:06:07.123Z,23.8
2018-04-17T10:07:16.272Z,23.83
2018-04-17T10:08:25.924Z,23.78
2018-04-17T10:09:35.342Z,23.83
2018-04-17T10:10:45.300Z,23.68
2018-04-17T10:11:54.747Z,23.78
2018-04-17T10:13:04.278Z,23.76
2018-04-17T10:14:13.977Z,23.7
2018-04-17T10:15:23.392Z,23.83
2018-04-17T10:16:32.319Z,23.78
2018-04-17T10:17:41.722Z,23.8
2018-04-17T10:18:51.471Z,23.75
2018-04-17T10:20:00.641Z,23.72
2018-04-17T10:21:10.069Z,23.8
2018-04-17T10:22:20.009Z,23.73
2018-04-17T10:23:29.156Z,23.73
2018-04-17T10:24:38.870Z,23.76
2018-04-17T10:25:48.292Z,23.75
2018-04-17T10:26:57.727Z,23.73
2018-04-17T10:28:07.682Z,23.76
2018-04-17T10:29:17.345Z,23.75
2018-04-17T10:30:26.672Z,23.75
2018-04-17T10:31:35.821Z,23.79
2018-04-17T10:32:45.259Z,23.79
2018-04-17T10:33:54.667Z,23.83
2018-04-17T10:35:03.821Z,23.83
2018-04-17T10:36:13.498Z,23.76
2018-04-17T10:37:22.927Z,23.73
2018-04-17T10:38:32.083Z,23.76
2018-04-17T10:39:41.848Z,23.83
2018-04-17T10:40:51.324Z,23.72
2018-04-17T10:42:00.743Z,23.73
2018-04-17T10:43:09.973Z,23.8
2018-04-17T10:44:19.436Z,23.79
2018-04-17T10:45:28.349Z,23.8
2018-04-17T10:46:37.609Z,23.83
2018-04-17T10:47:47.537Z,23.8
2018-04-17T10:48:56.195Z,23.85
2018-04-17T10:50:05.890Z,23.83
2018-04-17T10:51:15.047Z,23.79
2018-04-17T10:52:24.456Z,23.8
2018-04-17T10:53:33.870Z,23.83
2018-04-17T10:54:43.023Z,23.75
2018-04-17T10:55:52.437Z,23.69
2018-04-17T10:57:01.605Z,23.83
2018-04-17T10:58:10.510Z,23.79
2018-04-17T10:59:19.943Z,23.72
2018-04-17T11:00:29.103Z,23.84
2018-04-17T11:01:38.006Z,23.78
2018-04-17T11:02:47.946Z,23.83
2018-04-17T11:03:57.406Z,23.85
2018-04-17T11:05:06.840Z,23.72
2018-04-17T11:06:16.287Z,23.73
2018-04-17T11:07:25.461Z,23.78
2018-04-17T11:08:35.155Z,23.83
2018-04-17T11:09:44.588Z,23.75
2018-04-17T11:10:54.018Z,23.8
2018-04-17T11:12:03.446Z,23.73
2018-04-17T11:13:12.870Z,23.83
2018-04-17T11:14:22.040Z,23.73
2018-04-17T11:15:31.751Z,23.76
2018-04-17T11:16:40.917Z,23.84
2018-04-17T11:17:50.380Z,23.75
2018-04-17T11:18:59.790Z,23.83
2018-04-17T11:20:08.675Z,23.78
2018-04-17T11:21:17.330Z,23.8
2018-04-17T11:22:26.503Z,23.76
2018-04-17T11:23:35.924Z,23.76
2018-04-17T11:24:44.820Z,23.72
2018-04-17T11:25:53.964Z,23.75
2018-04-17T11:27:03.392Z,23.76
2018-04-17T11:28:13.075Z,23.8
2018-04-17T11:29:22.222Z,23.73
2018-04-17T11:30:31.412Z,23.72
2018-04-17T11:31:40.313Z,23.83
2018-04-17T11:32:49.728Z,23.72
2018-04-17T11:33:59.143Z,23.8
2018-04-17T11:35:08.366Z,23.78
2018-04-17T11:36:17.268Z,23.75
2018-04-17T11:37:25.912Z,23.73
2018-04-17T11:38:35.595Z,23.72
2018-04-17T11:39:44.767Z,23.84
2018-04-17T11:40:54.191Z,23.78
2018-04-17T11:42:03.620Z,23.78
2018-04-17T11:43:13.373Z,23.72
2018-04-17T11:44:22.790Z,23.78
2018-04-17T11:45:31.974Z,23.79
2018-04-17T11:46:41.420Z,23.83
2018-04-17T11:47:50.859Z,23.75
2018-04-17T11:49:00.287Z,23.8
2018-04-17T11:50:09.447Z,23.72
2018-04-17T11:51:18.607Z,23.8
2018-04-17T11:52:27.782Z,23.8
2018-04-17T11:53:36.668Z,23.78
2018-04-17T11:54:45.582Z,23.8
2018-04-17T11:55:55.263Z,23.84
2018-04-17T11:57:04.674Z,23.8
2018-04-17T11:58:13.853Z,23.79
2018-04-17T11:59:23.043Z,23.83
2018-04-17T12:00:32.208Z,23.83
2018-04-17T12:01:41.897Z,23.68
2018-04-17T12:02:51.576Z,23.73
2018-04-17T12:04:01.004Z,23.8
2018-04-17T12:05:10.791Z,23.8
2018-04-17T12:06:20.332Z,23.83
2018-04-17T12:07:29.777Z,23.76
2018-04-17T12:08:39.199Z,23.75
2018-04-17T12:09:48.665Z,23.78
2018-04-17T12:10:58.083Z,23.75
2018-04-17T12:12:07.762Z,23.85
2018-04-17T12:13:16.943Z,23.83
2018-04-17T12:14:25.913Z,23.84
2018-04-17T12:15:35.853Z,23.83
2018-04-17T12:16:45.279Z,23.83
2018-04-17T12:17:54.193Z,23.75
2018-04-17T12:19:03.633Z,23.78
2018-04-17T12:20:12.789Z,23.79
2018-04-17T12:21:22.489Z,23.83
2018-04-17T12:22:31.905Z,23.72
2018-04-17T12:23:41.352Z,23.85
2018-04-17T12:24:50.757Z,23.8
2018-04-17T12:26:00.514Z,23.78
2018-04-17T12:27:09.919Z,23.83
2018-04-17T12:28:19.582Z,23.79
2018-04-17T12:29:28.512Z,23.7
2018-04-17T12:30:38.199Z,23.83
2018-04-17T12:31:47.615Z,23.83
2018-04-17T12:32:57.307Z,23.78
2018-04-17T12:34:06.718Z,23.83
2018-04-17T12:35:15.632Z,23.78
2018-04-17T12:36:25.063Z,23.83
2018-04-17T12:37:34.514Z,23.8
2018-04-17T12:38:44.297Z,23.78
2018-04-17T12:39:53.992Z,23.78
2018-04-17T12:41:03.153Z,23.83
2018-04-17T12:42:12.578Z,23.87
2018-04-17T12:43:22.253Z,23.8
2018-04-17T12:44:32.180Z,23.8
2018-04-17T12:45:41.659Z,23.73
2018-04-17T12:46:51.619Z,23.83
2018-04-17T12:48:00.779Z,23.8
2018-04-17T12:49:10.715Z,23.83
2018-04-17T12:50:20.139Z,23.79
2018-04-17T12:51:30.089Z,23.83
2018-04-17T12:52:39.520Z,23.87
2018-04-17T12:53:48.951Z,23.9
2018-04-17T12:54:58.391Z,23.83
2018-04-17T12:56:07.555Z,23.83
2018-04-17T12:57:16.224Z,23.83
2018-04-17T12:58:25.388Z,23.8
2018-04-17T12:59:34.281Z,23.85
2018-04-17T13:00:43.423Z,23.79
2018-04-17T13:01:53.342Z,23.88
2018-04-17T13:03:02.773Z,23.85
2018-04-17T13:04:11.940Z,23.85
2018-04-17T13:05:21.367Z,23.88
2018-04-17T13:06:31.077Z,23.88
2018-04-17T13:07:40.085Z,23.93
2018-04-17T13:08:49.534Z,23.9
2018-04-17T13:09:59.454Z,23.88
2018-04-17T13:11:08.616Z,23.88
2018-04-17T13:12:17.534Z,23.85
2018-04-17T13:13:26.964Z,23.85
2018-04-17T13:14:36.385Z,23.87
2018-04-17T13:15:46.409Z,23.91
2018-04-17T13:16:56.177Z,23.87
2018-04-17T13:18:05.348Z,23.93
2018-04-17T13:19:14.522Z,23.85
2018-04-17T13:20:23.688Z,23.91
2018-04-17T13:21:33.128Z,23.85
2018-04-17T13:22:42.547Z,23.93
2018-04-17T13:23:51.701Z,23.87
2018-04-17T13:25:00.615Z,23.94
2018-04-17T13:26:10.292Z,23.9
2018-04-17T13:27:19.762Z,23.94
2018-04-17T13:28:28.941Z,23.85
2018-04-17T13:29:38.088Z,23.9
2018-04-17T13:30:47.756Z,23.94
2018-04-17T13:31:57.186Z,23.95
2018-04-17T13:33:06.346Z,23.91
2018-04-17T13:34:15.775Z,23.91
2018-04-17T13:35:25.192Z,23.98
2018-04-17T13:36:34.098Z,23.95
2018-04-17T13:37:43.518Z,23.93
2018-04-17T13:38:53.204Z,24.02
2018-04-17T13:40:02.357Z,23.98
2018-04-17T13:41:11.779Z,23.94
2018-04-17T13:42:20.759Z,24
2018-04-17T13:43:29.951Z,23.95
2018-04-17T13:44:39.363Z,24.02
2018-04-17T13:45:48.793Z,23.97
2018-04-17T13:46:58.493Z,24.08
2018-04-17T13:48:08.422Z,24.06
2018-04-17T13:49:18.200Z,24.05
2018-04-17T13:50:28.138Z,24.05
2018-04-17T13:51:37.305Z,24.05
2018-04-17T13:52:46.706Z,24.09
2018-04-17T13:53:56.386Z,23.91
2018-04-17T13:55:06.071Z,24.08
2018-04-17T13:56:15.557Z,24.06
2018-04-17T13:57:24.973Z,24.12
2018-04-17T13:58:34.902Z,24.06
2018-04-17T13:59:44.360Z,24.12
2018-04-17T14:00:53.297Z,24.05
2018-04-17T14:02:02.450Z,24.16
2018-04-17T14:03:11.098Z,24.13
2018-04-17T14:04:20.522Z,24.18
2018-04-17T14:05:30.207Z,24.09
2018-04-17T14:06:39.368Z,24.06
2018-04-17T14:07:49.058Z,24.02
2018-04-17T14:08:58.484Z,24.12
2018-04-17T14:10:08.162Z,24.03
2018-04-17T14:11:17.853Z,24.09
2018-04-17T14:12:27.282Z,24.16
2018-04-17T14:13:36.435Z,24.16
2018-04-17T14:14:46.364Z,24.16
2018-04-17T14:15:55.524Z,24.22
2018-04-17T14:17:05.001Z,24.09
2018-04-17T14:18:14.410Z,24.21
2018-04-17T14:19:23.826Z,24.16
2018-04-17T14:20:32.737Z,24.18
2018-04-17T14:21:41.921Z,24.27
2018-04-17T14:22:51.089Z,24.16
2018-04-17T14:24:00.762Z,24.16
2018-04-17T14:25:10.187Z,24.21
2018-04-17T14:26:19.893Z,24.24
2018-04-17T14:27:29.311Z,24.16
2018-04-17T14:28:38.719Z,24.2
2018-04-17T14:29:48.654Z,24.2
2018-04-17T14:30:57.567Z,24.25
2018-04-17T14:32:06.977Z,24.2
2018-04-17T14:33:16.654Z,24.28
2018-04-17T14:34:26.134Z,24.27
2018-04-17T14:35:35.806Z,24.28
2018-04-17T14:36:45.218Z,24.22
2018-04-17T14:37:54.385Z,24.31
2018-04-17T14:39:04.050Z,24.13
2018-04-17T14:40:13.460Z,24.32
2018-04-17T14:41:23.135Z,24.22
2018-04-17T14:42:33.081Z,24.31
2018-04-17T14:43:42.891Z,24.21
2018-04-17T14:44:52.314Z,24.22
2018-04-17T14:46:01.461Z,24.32
2018-04-17T14:47:10.618Z,24.27
2018-04-17T14:48:19.779Z,24.27
2018-04-17T14:49:28.925Z,24.28
2018-04-17T14:50:38.074Z,24.3
2018-04-17T14:51:47.219Z,24.15
2018-04-17T14:52:56.376Z,24.32
2018-04-17T14:54:05.791Z,24.28
2018-04-17T14:55:15.193Z,24.32
2018-04-17T14:56:24.372Z,24.24
2018-04-17T14:57:33.790Z,24.24
2018-04-17T14:58:42.940Z,24.3